createdAt,value
2023-04-12T00:02:46.128Z,38.6
2023-04-12T00:08:38.189Z,38.5
2023-04-12T00:14:29.992Z,38.4
2023-04-12T00:20:06.778Z,38.4
2023-04-12T00:25:57.603Z,38.3
2023-04-12T00:31:49.087Z,38.3
2023-04-12T00:37:41.033Z,38.3
2023-04-12T00:43:16.989Z,38.2
2023-04-12T00:48:37.774Z,38.1
2023-04-12T00:54:14.174Z,38.1
2023-04-12T01:00:04.776Z,38.1
2023-04-12T01:05:42.492Z,38.8
2023-04-12T01:11:34.631Z,39.8
2023-04-12T01:17:25.564Z,40.4
2023-04-12T01:23:01.377Z,41.1
2023-04-12T01:28:37.150Z,41.9
2023-04-12T01:33:57.836Z,42.6
2023-04-12T01:39:34.195Z,43.3
2023-04-12T01:45:10.126Z,43.9
2023-04-12T01:50:46.024Z,44.7
2023-04-12T01:56:22.685Z,45.4
2023-04-12T02:02:00.571Z,45.9
2023-04-12T02:07:38.698Z,46.1
2023-04-12T02:13:14.734Z,46.2
2023-04-12T02:18:51.574Z,46.3
2023-04-12T02:24:26.472Z,46.5
2023-04-12T02:30:02.030Z,46.6
2023-04-12T02:35:07.234Z,46.7
2023-04-12T02:40:43.199Z,46.7
2023-04-12T02:46:04.335Z,46.7
2023-04-12T02:51:26.576Z,46.7
2023-04-12T02:57:03.099Z,46.6
2023-04-12T03:02:40.059Z,46.6
2023-04-12T03:08:17.225Z,46.6
2023-04-12T03:13:53.025Z,46.5
2023-04-12T03:19:29.685Z,46.5
2023-04-12T03:25:06.023Z,46.5
2023-04-12T03:30:41.407Z,46.4
2023-04-12T03:36:17.836Z,46.3
2023-04-12T03:41:54.187Z,46.3
2023-04-12T03:47:33.107Z,46.2
2023-04-12T03:53:21.721Z,46.1
2023-04-12T03:58:58.782Z,46.1
2023-04-12T04:04:37.102Z,46
2023-04-12T04:10:14.227Z,45.9
2023-04-12T04:15:50.789Z,45.9
2023-04-12T04:21:26.402Z,45.8
2023-04-12T04:26:47.258Z,45.8
2023-04-12T04:32:23.601Z,45.6
2023-04-12T04:37:59.393Z,45.6
2023-04-12T04:43:35.617Z,45.5
2023-04-12T04:49:11.515Z,45.4
2023-04-12T04:54:47.592Z,45.4
2023-04-12T05:00:27.034Z,45.3
2023-04-12T05:06:06.290Z,45.2
2023-04-12T05:11:57.939Z,45.1
2023-04-12T05:17:55.773Z,45.1
2023-04-12T05:23:32.400Z,44.9
2023-04-12T05:29:08.045Z,44.9
2023-04-12T05:34:43.554Z,44.8
2023-04-12T05:40:19.297Z,44.8
2023-04-12T05:45:55.643Z,44.7
2023-04-12T05:51:40.825Z,44.6
2023-04-12T05:57:17.611Z,44.5
2023-04-12T06:02:55.086Z,44.4
2023-04-12T06:08:47.092Z,44.4
2023-04-12T06:14:22.938Z,44.3
2023-04-12T06:19:58.955Z,44.3
2023-04-12T06:25:35.322Z,44.1
2023-04-12T06:31:11.062Z,44
2023-04-12T06:36:47.656Z,43.8
2023-04-12T06:42:23.817Z,43.7
2023-04-12T06:48:00.348Z,43.6
2023-04-12T06:53:37.386Z,43.4
2023-04-12T06:58:42.948Z,43.3
2023-04-12T07:04:21.969Z,43.1
2023-04-12T07:09:52.377Z,43
2023-04-12T07:15:23.380Z,42.9
2023-04-12T07:21:00.752Z,42.7
2023-04-12T07:26:20.961Z,42.5
2023-04-12T07:31:57.574Z,53.4
2023-04-12T07:37:50.618Z,50.4
2023-04-12T07:43:28.649Z,48.7
2023-04-12T07:48:53.221Z,47.6
2023-04-12T07:54:29.711Z,55
2023-04-12T08:00:07.636Z,54.8
2023-04-12T08:05:48.930Z,54.5
2023-04-12T08:11:25.339Z,53.8
2023-04-12T08:17:02.098Z,53.9
2023-04-12T08:22:38.353Z,55.4
2023-04-12T08:28:15.215Z,56.4
2023-04-12T08:33:51.975Z,57.5
2023-04-12T08:39:59.403Z,58.4
2023-04-12T08:45:52.479Z,59.2
2023-04-12T08:51:43.950Z,59.8
2023-04-12T08:57:36.316Z,60.3
2023-04-12T09:03:31.302Z,60.9
2023-04-12T09:09:08.548Z,61.4
2023-04-12T09:14:48.046Z,61.8
2023-04-12T09:20:25.304Z,62.3
2023-04-12T09:26:16.287Z,62.7
2023-04-12T09:32:07.999Z,63
2023-04-12T09:37:45.465Z,63.5
2023-04-12T09:43:54.899Z,64
2023-04-12T09:49:47.669Z,64.5
2023-04-12T09:55:40.320Z,65
2023-04-12T10:01:34.361Z,65.4
2023-04-12T10:07:31.835Z,65.8
2023-04-12T10:13:08.891Z,66.3
2023-04-12T10:19:03.647Z,66.6
2023-04-12T10:24:58.723Z,67.1
2023-04-12T10:30:50.987Z,67.5
2023-04-12T10:36:44.084Z,67.8
2023-04-12T10:42:35.995Z,68.1
2023-04-12T10:48:27.994Z,68.5
2023-04-12T10:54:19.757Z,68.8
2023-04-12T11:00:20.730Z,69.1
2023-04-12T11:06:06.694Z,69.4
2023-04-12T11:12:04.426Z,69.6
2023-04-12T11:17:57.573Z,69.8
2023-04-12T11:23:50.024Z,70.1
2023-04-12T11:29:38.685Z,70.3
2023-04-12T11:35:31.489Z,70.3
2023-04-12T11:41:24.997Z,70.5
2023-04-12T11:47:30.993Z,70.5
2023-04-12T11:53:36.201Z,70.7
2023-04-12T11:59:12.928Z,70.8
2023-04-12T12:05:25.065Z,71
2023-04-12T12:11:41.428Z,70.9
2023-04-12T12:17:34.039Z,70.4
2023-04-12T12:23:25.549Z,70.4
2023-04-12T12:29:33.749Z,70.5
2023-04-12T12:35:43.493Z,70.5
2023-04-12T12:41:40.039Z,70.2
2023-04-12T12:47:56.175Z,70.1
2023-04-12T12:53:48.644Z,69.9
2023-04-12T12:59:58.811Z,69.7
2023-04-12T13:05:53.680Z,69.4
2023-04-12T13:11:46.621Z,69.1
2023-04-12T13:17:51.371Z,68.8
2023-04-12T13:23:45.313Z,68.3
2023-04-12T13:29:37.546Z,67.9
2023-04-12T13:35:17.384Z,67.4
2023-04-12T13:41:11.610Z,66.9
2023-04-12T13:47:03.812Z,66.3
2023-04-12T13:52:56.933Z,65.7
2023-04-12T13:58:49.155Z,65
2023-04-12T14:04:44.520Z,64.3
2023-04-12T14:10:36.452Z,63.6
2023-04-12T14:16:13.664Z,62.8
2023-04-12T14:22:06.579Z,61.3
2023-04-12T14:27:58.619Z,58.6
2023-04-12T14:33:52.800Z,56.1
2023-04-12T14:39:46.559Z,54.6
2023-04-12T14:45:39.437Z,53.5
2023-04-12T14:51:31.026Z,52.6
2023-04-12T14:57:30.893Z,51.8
2023-04-12T15:03:24.216Z,51.1
2023-04-12T15:09:17.361Z,50.5
2023-04-12T15:15:12.664Z,49.9
2023-04-12T15:21:13.865Z,49.5
2023-04-12T15:27:06.637Z,49
2023-04-12T15:32:59.169Z,48.6
2023-04-12T15:38:39.938Z,48.2
2023-04-12T15:44:31.306Z,47.8
2023-04-12T15:50:34.294Z,47.3
2023-04-12T15:56:25.571Z,47
2023-04-12T16:02:19.642Z,46.6
2023-04-12T16:08:13.985Z,46.3
2023-04-12T16:13:49.872Z,46
2023-04-12T16:19:41.958Z,45.8
2023-04-12T16:25:17.943Z,45.5
2023-04-12T16:31:10.560Z,45.3
2023-04-12T16:36:49.145Z,45
2023-04-12T16:42:41.269Z,44.8
2023-04-12T16:48:33.463Z,44.5
2023-04-12T16:54:27.970Z,43.6
2023-04-12T17:00:19.770Z,42.2
2023-04-12T17:06:12.449Z,39.8
2023-04-12T17:12:04.602Z,38.3
2023-04-12T17:17:56.944Z,37
2023-04-12T17:23:51.075Z,36.1
2023-04-12T17:29:43.620Z,35.2
2023-04-12T17:35:20.653Z,34.6
2023-04-12T17:41:15.284Z,34.2
2023-04-12T17:47:08.098Z,33.9
2023-04-12T17:53:00.235Z,33.7
2023-04-12T17:58:51.511Z,33.5
2023-04-12T18:04:45.968Z,33.3
2023-04-12T18:10:38.214Z,33.2
2023-04-12T18:16:30.259Z,33
2023-04-12T18:22:22.602Z,32.9
2023-04-12T18:28:16.760Z,32.8
2023-04-12T18:34:09.432Z,31.9
2023-04-12T18:40:01.076Z,29.6
2023-04-12T18:45:53.330Z,28.1
2023-04-12T18:51:45.876Z,27.4
2023-04-12T18:57:24.128Z,26.9
2023-04-12T19:03:38.223Z,26.6
2023-04-12T19:09:32.648Z,26.3
2023-04-12T19:15:25.685Z,25.5
2023-04-12T19:21:18.618Z,24.4
2023-04-12T19:27:14.796Z,23.8
2023-04-12T19:33:08.568Z,23.4
2023-04-12T19:39:04.647Z,23.1
2023-04-12T19:45:00.153Z,22.9
2023-04-12T19:50:54.307Z,22.8
2023-04-12T19:56:47.523Z,22.8
2023-04-12T20:02:41.239Z,22.6
2023-04-12T20:08:34.497Z,22.6
2023-04-12T20:14:27.228Z,22.5
2023-04-12T20:20:05.563Z,22.4
2023-04-12T20:25:57.326Z,22.4
2023-04-12T20:31:49.692Z,22.4
2023-04-12T20:37:41.563Z,22.4
2023-04-12T20:43:33.842Z,22.4
2023-04-12T20:49:27.106Z,22.3
2023-04-12T20:55:19.906Z,22.3
2023-04-12T21:01:14.284Z,22.3
2023-04-12T21:08:45.230Z,22.3
2023-04-12T21:14:21.243Z,22.3
2023-04-12T21:20:12.701Z,22.3
2023-04-12T21:26:03.483Z,22.3
2023-04-12T21:31:55.462Z,22.2
2023-04-12T21:37:47.031Z,22.3
2023-04-12T21:43:38.428Z,22.3
2023-04-12T21:49:30.503Z,22.3
2023-04-12T21:55:25.453Z,22.3
2023-04-12T22:01:19.198Z,22.3
2023-04-12T22:07:09.443Z,22.2
2023-04-12T22:12:45.421Z,22.2
2023-04-12T22:18:37.249Z,22.3
2023-04-12T22:24:13.312Z,22.2
2023-04-12T22:29:50.133Z,22.2
2023-04-12T22:35:40.428Z,22.2
2023-04-12T22:41:32.443Z,22.2
2023-04-12T22:47:23.983Z,22.2
2023-04-12T22:53:15.481Z,22.2
2023-04-12T22:59:06.985Z,22.3
2023-04-12T23:05:02.925Z,22.3
2023-04-12T23:10:53.842Z,22.3
2023-04-12T23:16:29.793Z,22.3
2023-04-12T23:22:06.056Z,22.2
2023-04-12T23:27:57.822Z,22.2
2023-04-12T23:33:34.937Z,22.3
2023-04-12T23:39:25.958Z,22.3
2023-04-12T23:45:16.550Z,22.3
2023-04-12T23:51:08.540Z,22.3
2023-04-12T23:57:00.636Z,22.3
